createdAt,value
2023-01-25T00:01:20.280Z,10.70
2023-01-25T00:06:22.251Z,10.40
2023-01-25T00:11:24.198Z,9.20
2023-01-25T00:16:26.161Z,9.60
2023-01-25T00:21:28.724Z,12.40
2023-01-25T00:26:35.086Z,10.70
2023-01-25T00:32:06.609Z,13.70
2023-01-25T00:37:17.569Z,12.60
2023-01-25T00:42:20.238Z,13.90
2023-01-25T00:47:22.408Z,13.30
2023-01-25T00:52:24.469Z,13.20
2023-01-25T00:57:26.400Z,12.90
2023-01-25T01:02:30.547Z,11.60
2023-01-25T01:07:33.424Z,12.90
2023-01-25T01:12:35.415Z,12.80
2023-01-25T01:17:37.340Z,11.50
2023-01-25T01:22:40.071Z,12.20
2023-01-25T01:27:42.015Z,10.70
2023-01-25T01:32:44.748Z,12.50
2023-01-25T01:37:47.489Z,13.00
2023-01-25T01:43:00.478Z,12.00
2023-01-25T01:48:02.726Z,13.50
2023-01-25T01:53:04.670Z,12.10
2023-01-25T01:58:07.483Z,13.70
2023-01-25T02:03:11.524Z,14.50
2023-01-25T02:08:15.360Z,14.20
2023-01-25T02:13:18.867Z,13.30
2023-01-25T02:18:20.877Z,12.20
2023-01-25T02:23:48.251Z,11.90
2023-01-25T02:29:04.057Z,11.40
2023-01-25T02:34:06.042Z,14.20
2023-01-25T02:39:19.302Z,8.80
2023-01-25T02:44:29.374Z,11.70
2023-01-25T02:49:36.460Z,14.10
2023-01-25T02:54:38.702Z,13.40
2023-01-25T02:59:40.819Z,13.10
2023-01-25T03:04:42.705Z,14.00
2023-01-25T03:09:44.581Z,12.00
2023-01-25T03:14:46.713Z,14.90
2023-01-25T03:19:48.623Z,14.30
2023-01-25T03:24:51.262Z,12.00
2023-01-25T03:29:53.193Z,9.00
2023-01-25T03:34:55.206Z,7.50
2023-01-25T03:39:57.898Z,7.00
2023-01-25T03:44:59.859Z,6.90
2023-01-25T03:50:01.818Z,10.60
2023-01-25T03:55:05.010Z,10.40
2023-01-25T04:00:08.560Z,8.40
2023-01-25T04:05:10.877Z,10.10
2023-01-25T04:10:13.151Z,7.40
2023-01-25T04:15:15.165Z,8.90
2023-01-25T04:20:17.217Z,9.60
2023-01-25T04:25:22.417Z,8.60
2023-01-25T04:30:24.782Z,7.90
2023-01-25T04:35:26.795Z,10.30
2023-01-25T04:40:28.891Z,8.90
2023-01-25T04:45:30.875Z,9.40
2023-01-25T04:50:32.883Z,12.60
2023-01-25T04:55:35.508Z,10.40
2023-01-25T05:00:37.422Z,7.00
2023-01-25T05:05:43.957Z,10.80
2023-01-25T05:10:46.246Z,11.40
2023-01-25T05:15:48.319Z,7.80
2023-01-25T05:20:55.695Z,11.40
2023-01-25T05:26:16.857Z,10.70
2023-01-25T05:31:18.978Z,11.10
2023-01-25T05:36:21.255Z,9.80
2023-01-25T05:41:23.318Z,9.90
2023-01-25T05:46:27.338Z,9.50
2023-01-25T05:51:29.383Z,10.50
2023-01-25T05:56:32.698Z,7.00
2023-01-25T06:01:34.673Z,10.00
2023-01-25T06:06:36.652Z,11.50
2023-01-25T06:11:38.925Z,10.80
2023-01-25T06:16:41.270Z,9.80
2023-01-25T06:21:43.200Z,8.30
2023-01-25T06:26:45.030Z,7.90
2023-01-25T06:31:47.563Z,11.70
2023-01-25T06:36:49.686Z,10.10
2023-01-25T06:41:51.758Z,12.70
2023-01-25T06:46:53.886Z,12.00
2023-01-25T06:51:55.965Z,10.00
2023-01-25T06:56:57.955Z,13.00
2023-01-25T07:02:06.134Z,11.90
2023-01-25T07:07:11.907Z,13.60
2023-01-25T07:12:14.006Z,11.50
2023-01-25T07:17:16.069Z,12.40
2023-01-25T07:22:18.231Z,10.40
2023-01-25T07:27:20.212Z,14.00
2023-01-25T07:32:22.735Z,14.90
2023-01-25T07:37:27.414Z,10.00
2023-01-25T07:42:29.370Z,11.30
2023-01-25T07:47:31.368Z,14.20
2023-01-25T07:52:34.007Z,15.00
2023-01-25T07:57:35.977Z,24.00
2023-01-25T08:02:38.120Z,14.20
2023-01-25T08:07:40.231Z,14.40
2023-01-25T08:12:46.392Z,16.10
2023-01-25T08:17:48.392Z,17.20
2023-01-25T08:22:52.031Z,13.20
2023-01-25T08:27:54.293Z,9.20
2023-01-25T08:32:59.239Z,16.60
2023-01-25T08:38:01.221Z,13.40
2023-01-25T08:43:03.556Z,13.50
2023-01-25T08:48:06.282Z,14.30
2023-01-25T08:53:08.447Z,14.30
2023-01-25T08:58:12.471Z,11.60
2023-01-25T09:03:15.697Z,12.10
2023-01-25T09:08:18.270Z,13.30
2023-01-25T09:13:20.659Z,9.70
2023-01-25T09:18:23.081Z,12.80
2023-01-25T09:23:26.675Z,10.30
2023-01-25T09:28:30.386Z,10.90
2023-01-25T09:33:36.273Z,10.60
2023-01-25T09:38:39.079Z,11.10
2023-01-25T09:43:56.868Z,11.50
2023-01-25T09:49:11.594Z,11.40
2023-01-25T09:54:18.201Z,13.40
2023-01-25T09:59:27.224Z,13.30
2023-01-25T10:04:37.123Z,12.70
2023-01-25T10:09:48.052Z,12.80
2023-01-25T10:14:51.291Z,17.30
2023-01-25T10:20:14.971Z,12.70
2023-01-25T10:25:50.919Z,14.70
2023-01-25T10:30:56.535Z,15.10
2023-01-25T10:36:03.482Z,14.20
2023-01-25T10:41:16.637Z,11.30
2023-01-25T10:46:25.219Z,14.30
2023-01-25T10:51:33.240Z,15.40
2023-01-25T10:56:38.940Z,13.70
2023-01-25T11:01:41.019Z,10.00
2023-01-25T11:06:49.981Z,12.60
2023-01-25T11:12:00.482Z,14.50
2023-01-25T11:17:05.397Z,14.90
2023-01-25T11:22:33.101Z,13.50
2023-01-25T11:27:46.873Z,11.80
2023-01-25T11:32:49.823Z,12.10
2023-01-25T11:38:11.687Z,12.20
2023-01-25T11:43:45.356Z,12.70
2023-01-25T11:49:02.733Z,12.80
2023-01-25T11:54:32.856Z,11.30
2023-01-25T11:59:55.975Z,10.90
2023-01-25T12:05:23.481Z,13.90
2023-01-25T12:10:31.406Z,12.70
2023-01-25T12:16:32.646Z,10.20
2023-01-25T12:21:59.130Z,12.50
2023-01-25T12:27:19.624Z,10.70
2023-01-25T12:32:35.440Z,9.90
2023-01-25T12:37:40.785Z,9.40
2023-01-25T12:42:51.959Z,13.10
2023-01-25T12:48:00.143Z,10.70
2023-01-25T12:53:17.753Z,15.60
2023-01-25T12:58:49.746Z,13.10
2023-01-25T13:04:00.896Z,13.50
2023-01-25T13:09:10.186Z,11.30
2023-01-25T13:14:15.324Z,11.30
2023-01-25T13:19:38.039Z,13.90
2023-01-25T13:25:02.397Z,15.20
2023-01-25T13:30:32.582Z,13.00
2023-01-25T13:35:37.677Z,16.30
2023-01-25T13:40:40.301Z,17.70
2023-01-25T13:45:43.643Z,18.20
2023-01-25T13:50:50.804Z,19.10
2023-01-25T13:55:56.428Z,17.40
2023-01-25T14:01:07.716Z,20.00
2023-01-25T14:06:19.466Z,21.20
2023-01-25T14:11:24.044Z,20.00
2023-01-25T14:16:29.436Z,14.80
2023-01-25T14:21:31.809Z,19.40
2023-01-25T14:26:35.618Z,19.60
2023-01-25T14:31:39.782Z,18.80
2023-01-25T14:36:41.821Z,19.30
2023-01-25T14:41:59.240Z,14.40
2023-01-25T14:47:28.091Z,17.90
2023-01-25T14:52:30.470Z,16.30
2023-01-25T14:57:51.095Z,25.10
2023-01-25T15:03:00.424Z,22.70
2023-01-25T15:08:08.711Z,16.30
2023-01-25T15:13:15.455Z,21.00
2023-01-25T15:18:44.084Z,17.00
2023-01-25T15:23:47.920Z,18.60
2023-01-25T15:28:56.429Z,18.50
2023-01-25T15:34:01.044Z,18.70
2023-01-25T15:39:03.035Z,23.40
2023-01-25T15:44:05.329Z,14.80
2023-01-25T15:49:11.269Z,17.80
2023-01-25T15:54:13.688Z,14.90
2023-01-25T15:59:18.414Z,17.30
2023-01-25T16:04:20.432Z,20.20
2023-01-25T16:09:25.037Z,20.10
2023-01-25T16:14:30.860Z,15.40
2023-01-25T16:19:33.109Z,11.80
2023-01-25T16:24:39.209Z,12.10
2023-01-25T16:29:41.541Z,13.60
2023-01-25T16:34:43.573Z,12.80
2023-01-25T16:39:45.516Z,14.20
2023-01-25T16:44:48.485Z,15.70
2023-01-25T16:49:50.874Z,17.00
2023-01-25T16:54:52.752Z,16.30
2023-01-25T16:59:54.687Z,17.70
2023-01-25T17:04:56.779Z,19.40
2023-01-25T17:09:58.973Z,27.20
2023-01-25T17:15:00.983Z,20.40
2023-01-25T17:20:04.514Z,17.40
2023-01-25T17:25:06.931Z,18.60
2023-01-25T17:30:09.661Z,17.80
2023-01-25T17:35:11.991Z,16.20
2023-01-25T17:40:14.228Z,12.80
2023-01-25T17:45:16.446Z,11.00
2023-01-25T17:50:18.563Z,15.60
2023-01-25T17:55:20.615Z,14.50
2023-01-25T18:00:23.246Z,10.50
2023-01-25T18:05:28.835Z,14.50
2023-01-25T18:10:30.831Z,14.60
2023-01-25T18:15:33.136Z,15.50
2023-01-25T18:20:35.565Z,15.60
2023-01-25T18:25:37.750Z,12.20
2023-01-25T18:30:44.028Z,13.00
2023-01-25T18:35:48.098Z,10.80
2023-01-25T18:40:50.016Z,17.10
2023-01-25T18:45:56.755Z,14.90
2023-01-25T18:51:04.911Z,14.10
2023-01-25T18:56:11.286Z,14.30
2023-01-25T19:01:19.364Z,16.40
2023-01-25T19:06:21.340Z,18.20
2023-01-25T19:11:23.739Z,16.70
2023-01-25T19:16:25.983Z,18.50
2023-01-25T19:21:28.046Z,17.50
2023-01-25T19:26:30.201Z,17.70
2023-01-25T19:31:33.095Z,20.30
2023-01-25T19:36:37.912Z,22.40
2023-01-25T19:41:39.900Z,20.90
2023-01-25T19:46:42.601Z,21.10
2023-01-25T19:51:48.504Z,20.90
2023-01-25T19:56:50.915Z,22.40
2023-01-25T20:01:53.390Z,20.80
2023-01-25T20:06:55.368Z,23.20
2023-01-25T20:11:57.964Z,22.20
2023-01-25T20:17:00.070Z,20.50
2023-01-25T20:22:02.267Z,14.30
2023-01-25T20:27:04.535Z,16.40
2023-01-25T20:32:06.977Z,19.00
2023-01-25T20:37:09.209Z,12.70
2023-01-25T20:42:11.156Z,16.80
2023-01-25T20:47:13.087Z,19.20
2023-01-25T20:52:15.043Z,13.90
2023-01-25T20:57:16.973Z,17.40
2023-01-25T21:02:18.931Z,16.50
2023-01-25T21:07:21.086Z,16.00
2023-01-25T21:12:23.548Z,19.00
2023-01-25T21:17:25.930Z,16.40
2023-01-25T21:22:29.548Z,18.90
2023-01-25T21:27:31.522Z,13.10
2023-01-25T21:32:33.485Z,17.20
2023-01-25T21:37:35.492Z,18.80
2023-01-25T21:42:37.645Z,16.20
2023-01-25T21:47:39.676Z,18.20
2023-01-25T21:52:41.776Z,16.40
2023-01-25T21:57:47.107Z,18.30
2023-01-25T22:02:51.235Z,17.60
2023-01-25T22:07:53.364Z,15.50
2023-01-25T22:12:55.512Z,17.80
2023-01-25T22:17:57.449Z,16.50
2023-01-25T22:22:59.438Z,19.50
2023-01-25T22:28:04.467Z,18.70
2023-01-25T22:33:06.696Z,20.70
2023-01-25T22:38:08.602Z,16.40
2023-01-25T22:43:10.539Z,15.30
2023-01-25T22:48:12.530Z,13.50
2023-01-25T22:53:34.165Z,13.70
2023-01-25T22:58:37.598Z,16.30
2023-01-25T23:03:59.414Z,19.70
2023-01-25T23:09:04.673Z,15.40
2023-01-25T23:14:30.001Z,14.70
2023-01-25T23:19:31.883Z,15.90
2023-01-25T23:24:33.853Z,19.90
2023-01-25T23:29:36.953Z,19.80
2023-01-25T23:34:39.849Z,17.70
2023-01-25T23:39:41.746Z,15.30
2023-01-25T23:44:43.747Z,16.10
2023-01-25T23:49:45.664Z,17.10
2023-01-25T23:54:47.554Z,18.40
2023-01-25T23:59:49.516Z,17.60
